sensor_id;sensor_type;location;lat;lon;timestamp;temperature;humidity
11925;DHT22;6022;48.768;18.608;2022-07-03T00:02:09;17.10;99.90
11925;DHT22;6022;48.768;18.608;2022-07-03T00:04:37;16.90;99.90
11925;DHT22;6022;48.768;18.608;2022-07-03T00:07:04;17.00;99.90
11925;DHT22;6022;48.768;18.608;2022-07-03T00:09:32;17.10;99.90
11925;DHT22;6022;48.768;18.608;2022-07-03T00:11:59;17.10;99.90
11925;DHT22;6022;48.768;18.608;2022-07-03T00:14:27;16.90;99.90
11925;DHT22;6022;48.768;18.608;2022-07-03T00:16:54;16.80;99.90
11925;DHT22;6022;48.768;18.608;2022-07-03T00:19:22;17.00;99.90
11925;DHT22;6022;48.768;18.608;2022-07-03T00:21:54;16.90;99.90
11925;DHT22;6022;48.768;18.608;2022-07-03T00:24:26;16.90;99.90
11925;DHT22;6022;48.768;18.608;2022-07-03T00:26:59;16.90;99.90
11925;DHT22;6022;48.768;18.608;2022-07-03T00:29:37;16.80;99.90
11925;DHT22;6022;48.768;18.608;2022-07-03T00:32:09;16.80;99.90
11925;DHT22;6022;48.768;18.608;2022-07-03T00:34:47;16.90;99.90
11925;DHT22;6022;48.768;18.608;2022-07-03T00:37:16;16.60;99.90
11925;DHT22;6022;48.768;18.608;2022-07-03T00:39:44;16.80;99.90
11925;DHT22;6022;48.768;18.608;2022-07-03T00:42:12;16.80;99.90
11925;DHT22;6022;48.768;18.608;2022-07-03T00:45:06;16.60;99.90
11925;DHT22;6022;48.768;18.608;2022-07-03T00:47:36;16.60;99.90
11925;DHT22;6022;48.768;18.608;2022-07-03T00:50:08;16.80;99.90
11925;DHT22;6022;48.768;18.608;2022-07-03T00:52:36;16.70;99.90
11925;DHT22;6022;48.768;18.608;2022-07-03T00:55:14;16.40;99.90
11925;DHT22;6022;48.768;18.608;2022-07-03T00:57:45;16.40;99.90
11925;DHT22;6022;48.768;18.608;2022-07-03T01:00:15;16.70;99.90
11925;DHT22;6022;48.768;18.608;2022-07-03T01:05:35;16.60;99.90
11925;DHT22;6022;48.768;18.608;2022-07-03T01:14:19;16.60;99.90
11925;DHT22;6022;48.768;18.608;2022-07-03T01:16:59;16.60;99.90
11925;DHT22;6022;48.768;18.608;2022-07-03T01:19:41;16.70;99.90
11925;DHT22;6022;48.768;18.608;2022-07-03T01:25:24;16.70;99.90
11925;DHT22;6022;48.768;18.608;2022-07-03T01:30:38;16.70;99.90
11925;DHT22;6022;48.768;18.608;2022-07-03T01:33:24;16.60;99.90
11925;DHT22;6022;48.768;18.608;2022-07-03T01:38:32;17.00;99.90
11925;DHT22;6022;48.768;18.608;2022-07-03T01:41:06;16.80;99.90
11925;DHT22;6022;48.768;18.608;2022-07-03T01:46:16;16.50;99.90
11925;DHT22;6022;48.768;18.608;2022-07-03T01:48:45;16.60;99.90
11925;DHT22;6022;48.768;18.608;2022-07-03T01:51:16;16.60;99.90
11925;DHT22;6022;48.768;18.608;2022-07-03T01:53:47;16.60;99.90
11925;DHT22;6022;48.768;18.608;2022-07-03T01:56:17;16.50;99.90
11925;DHT22;6022;48.768;18.608;2022-07-03T01:58:46;16.80;99.90
11925;DHT22;6022;48.768;18.608;2022-07-03T02:01:31;16.60;99.90
11925;DHT22;6022;48.768;18.608;2022-07-03T02:07:15;16.60;99.90
11925;DHT22;6022;48.768;18.608;2022-07-03T02:10:06;16.60;99.90
11925;DHT22;6022;48.768;18.608;2022-07-03T02:12:51;16.60;99.90
11925;DHT22;6022;48.768;18.608;2022-07-03T02:15:32;16.60;99.90
11925;DHT22;6022;48.768;18.608;2022-07-03T02:18:11;16.80;99.90
11925;DHT22;6022;48.768;18.608;2022-07-03T02:21:26;16.40;99.90
11925;DHT22;6022;48.768;18.608;2022-07-03T02:26:53;16.40;99.90
11925;DHT22;6022;48.768;18.608;2022-07-03T02:29:47;16.40;99.90
11925;DHT22;6022;48.768;18.608;2022-07-03T02:32:22;16.10;99.90
11925;DHT22;6022;48.768;18.608;2022-07-03T02:35:00;16.00;99.90
11925;DHT22;6022;48.768;18.608;2022-07-03T02:37:38;16.50;99.90
11925;DHT22;6022;48.768;18.608;2022-07-03T02:43:30;16.20;99.90
11925;DHT22;6022;48.768;18.608;2022-07-03T02:46:38;16.20;99.90
11925;DHT22;6022;48.768;18.608;2022-07-03T02:55:26;16.50;99.90
11925;DHT22;6022;48.768;18.608;2022-07-03T03:01:03;16.10;99.90
11925;DHT22;6022;48.768;18.608;2022-07-03T03:03:37;16.10;99.90
11925;DHT22;6022;48.768;18.608;2022-07-03T03:06:15;16.30;99.90
11925;DHT22;6022;48.768;18.608;2022-07-03T03:08:50;16.00;99.90
11925;DHT22;6022;48.768;18.608;2022-07-03T03:11:23;16.00;99.90
11925;DHT22;6022;48.768;18.608;2022-07-03T03:14:15;16.00;99.90
11925;DHT22;6022;48.768;18.608;2022-07-03T03:16:47;16.00;99.90
11925;DHT22;6022;48.768;18.608;2022-07-03T03:19:19;16.00;99.90
11925;DHT22;6022;48.768;18.608;2022-07-03T03:22:04;15.80;99.90
11925;DHT22;6022;48.768;18.608;2022-07-03T03:24:57;16.00;99.90
11925;DHT22;6022;48.768;18.608;2022-07-03T03:27:26;15.90;99.90
11925;DHT22;6022;48.768;18.608;2022-07-03T03:29:54;15.70;99.90
11925;DHT22;6022;48.768;18.608;2022-07-03T03:32:22;15.90;99.90
11925;DHT22;6022;48.768;18.608;2022-07-03T03:34:51;16.00;99.90
11925;DHT22;6022;48.768;18.608;2022-07-03T03:37:19;16.00;99.90
11925;DHT22;6022;48.768;18.608;2022-07-03T03:39:49;15.90;99.90
11925;DHT22;6022;48.768;18.608;2022-07-03T03:42:16;16.00;99.90
11925;DHT22;6022;48.768;18.608;2022-07-03T03:44:44;16.30;99.90
11925;DHT22;6022;48.768;18.608;2022-07-03T03:47:11;16.10;99.90
11925;DHT22;6022;48.768;18.608;2022-07-03T03:49:38;16.90;99.90
11925;DHT22;6022;48.768;18.608;2022-07-03T03:52:06;17.70;99.90
11925;DHT22;6022;48.768;18.608;2022-07-03T03:54:34;18.10;99.90
11925;DHT22;6022;48.768;18.608;2022-07-03T03:57:21;18.30;99.90
11925;DHT22;6022;48.768;18.608;2022-07-03T03:59:50;18.80;99.90
11925;DHT22;6022;48.768;18.608;2022-07-03T04:02:18;18.90;99.90
11925;DHT22;6022;48.768;18.608;2022-07-03T04:04:46;19.20;99.90
11925;DHT22;6022;48.768;18.608;2022-07-03T04:07:13;19.40;99.90
11925;DHT22;6022;48.768;18.608;2022-07-03T04:09:40;19.60;99.90
11925;DHT22;6022;48.768;18.608;2022-07-03T04:12:08;19.70;99.90
11925;DHT22;6022;48.768;18.608;2022-07-03T04:14:36;19.60;99.90
11925;DHT22;6022;48.768;18.608;2022-07-03T04:17:04;19.60;99.90
11925;DHT22;6022;48.768;18.608;2022-07-03T04:19:31;19.10;99.90
11925;DHT22;6022;48.768;18.608;2022-07-03T04:21:58;19.00;99.90
11925;DHT22;6022;48.768;18.608;2022-07-03T04:24:26;19.00;99.90
11925;DHT22;6022;48.768;18.608;2022-07-03T04:26:53;18.90;99.90
11925;DHT22;6022;48.768;18.608;2022-07-03T04:29:20;18.80;99.90
11925;DHT22;6022;48.768;18.608;2022-07-03T04:31:47;18.80;99.90
11925;DHT22;6022;48.768;18.608;2022-07-03T04:34:14;18.90;99.90
11925;DHT22;6022;48.768;18.608;2022-07-03T04:36:42;18.60;99.90
11925;DHT22;6022;48.768;18.608;2022-07-03T04:39:09;18.90;99.90
11925;DHT22;6022;48.768;18.608;2022-07-03T04:41:36;18.90;99.90
11925;DHT22;6022;48.768;18.608;2022-07-03T04:44:04;19.20;99.90
11925;DHT22;6022;48.768;18.608;2022-07-03T04:46:31;19.40;99.90
11925;DHT22;6022;48.768;18.608;2022-07-03T04:48:58;20.60;99.90
11925;DHT22;6022;48.768;18.608;2022-07-03T04:51:25;20.70;99.90
11925;DHT22;6022;48.768;18.608;2022-07-03T04:53:53;21.80;99.90
11925;DHT22;6022;48.768;18.608;2022-07-03T04:56:20;23.50;99.90
11925;DHT22;6022;48.768;18.608;2022-07-03T04:58:48;25.10;99.90
11925;DHT22;6022;48.768;18.608;2022-07-03T05:01:15;27.50;99.90
11925;DHT22;6022;48.768;18.608;2022-07-03T05:03:42;28.40;99.90
11925;DHT22;6022;48.768;18.608;2022-07-03T05:06:10;29.60;99.90
11925;DHT22;6022;48.768;18.608;2022-07-03T05:08:37;29.60;99.90
11925;DHT22;6022;48.768;18.608;2022-07-03T05:11:04;30.30;99.30
11925;DHT22;6022;48.768;18.608;2022-07-03T05:13:31;30.40;99.30
11925;DHT22;6022;48.768;18.608;2022-07-03T05:15:58;30.70;97.40
11925;DHT22;6022;48.768;18.608;2022-07-03T05:18:26;31.10;95.90
11925;DHT22;6022;48.768;18.608;2022-07-03T05:20:53;31.30;94.70
11925;DHT22;6022;48.768;18.608;2022-07-03T05:23:20;31.70;93.50
11925;DHT22;6022;48.768;18.608;2022-07-03T05:25:47;31.70;92.80
11925;DHT22;6022;48.768;18.608;2022-07-03T05:28:14;31.80;92.20
11925;DHT22;6022;48.768;18.608;2022-07-03T05:30:42;32.50;90.80
11925;DHT22;6022;48.768;18.608;2022-07-03T05:33:09;32.70;89.40
11925;DHT22;6022;48.768;18.608;2022-07-03T05:35:36;33.30;86.30
11925;DHT22;6022;48.768;18.608;2022-07-03T05:38:03;33.80;83.80
11925;DHT22;6022;48.768;18.608;2022-07-03T05:40:31;33.80;81.00
11925;DHT22;6022;48.768;18.608;2022-07-03T05:42:58;34.30;77.90
11925;DHT22;6022;48.768;18.608;2022-07-03T05:45:25;34.40;76.60
11925;DHT22;6022;48.768;18.608;2022-07-03T05:47:53;33.40;76.60
11925;DHT22;6022;48.768;18.608;2022-07-03T05:50:20;33.10;78.30
11925;DHT22;6022;48.768;18.608;2022-07-03T05:52:47;33.10;78.20
11925;DHT22;6022;48.768;18.608;2022-07-03T05:55:14;33.20;77.20
11925;DHT22;6022;48.768;18.608;2022-07-03T05:57:42;33.50;76.90
11925;DHT22;6022;48.768;18.608;2022-07-03T06:00:10;33.60;76.00
11925;DHT22;6022;48.768;18.608;2022-07-03T06:02:37;33.60;76.30
11925;DHT22;6022;48.768;18.608;2022-07-03T06:05:05;35.00;73.50
11925;DHT22;6022;48.768;18.608;2022-07-03T06:07:32;35.60;69.30
11925;DHT22;6022;48.768;18.608;2022-07-03T06:10:00;35.40;68.20
11925;DHT22;6022;48.768;18.608;2022-07-03T06:12:27;35.80;68.30
11925;DHT22;6022;48.768;18.608;2022-07-03T06:14:54;36.30;66.00
11925;DHT22;6022;48.768;18.608;2022-07-03T06:17:28;36.50;65.00
11925;DHT22;6022;48.768;18.608;2022-07-03T06:19:55;36.90;62.90
11925;DHT22;6022;48.768;18.608;2022-07-03T06:22:22;36.60;62.80
11925;DHT22;6022;48.768;18.608;2022-07-03T06:24:49;36.80;62.20
11925;DHT22;6022;48.768;18.608;2022-07-03T06:27:17;37.60;60.60
11925;DHT22;6022;48.768;18.608;2022-07-03T06:29:44;37.50;59.20
11925;DHT22;6022;48.768;18.608;2022-07-03T06:32:12;37.10;58.90
11925;DHT22;6022;48.768;18.608;2022-07-03T06:34:39;37.20;58.40
11925;DHT22;6022;48.768;18.608;2022-07-03T06:37:06;37.40;58.00
11925;DHT22;6022;48.768;18.608;2022-07-03T06:39:34;37.00;57.50
11925;DHT22;6022;48.768;18.608;2022-07-03T06:42:01;35.80;60.00
11925;DHT22;6022;48.768;18.608;2022-07-03T06:44:29;36.50;59.00
11925;DHT22;6022;48.768;18.608;2022-07-03T06:46:56;37.00;57.80
11925;DHT22;6022;48.768;18.608;2022-07-03T06:49:24;37.70;56.60
11925;DHT22;6022;48.768;18.608;2022-07-03T06:51:51;38.80;54.50
11925;DHT22;6022;48.768;18.608;2022-07-03T06:54:18;38.60;54.00
11925;DHT22;6022;48.768;18.608;2022-07-03T06:56:46;38.60;53.40
11925;DHT22;6022;48.768;18.608;2022-07-03T06:59:13;38.60;52.90
11925;DHT22;6022;48.768;18.608;2022-07-03T07:01:40;38.80;51.80
11925;DHT22;6022;48.768;18.608;2022-07-03T07:04:09;39.40;50.60
11925;DHT22;6022;48.768;18.608;2022-07-03T07:06:36;39.00;50.30
11925;DHT22;6022;48.768;18.608;2022-07-03T07:09:05;38.80;50.40
11925;DHT22;6022;48.768;18.608;2022-07-03T07:11:32;38.60;50.20
11925;DHT22;6022;48.768;18.608;2022-07-03T07:14:00;38.70;49.50
11925;DHT22;6022;48.768;18.608;2022-07-03T07:16:27;39.30;47.40
11925;DHT22;6022;48.768;18.608;2022-07-03T07:18:56;38.70;47.20
11925;DHT22;6022;48.768;18.608;2022-07-03T07:21:23;37.80;48.60
11925;DHT22;6022;48.768;18.608;2022-07-03T07:23:51;38.20;47.80
11925;DHT22;6022;48.768;18.608;2022-07-03T07:26:19;38.30;47.70
11925;DHT22;6022;48.768;18.608;2022-07-03T07:28:47;38.50;47.60
11925;DHT22;6022;48.768;18.608;2022-07-03T07:31:14;38.40;47.10
11925;DHT22;6022;48.768;18.608;2022-07-03T07:33:41;38.50;48.30
11925;DHT22;6022;48.768;18.608;2022-07-03T07:36:09;39.60;46.60
11925;DHT22;6022;48.768;18.608;2022-07-03T07:38:36;41.00;44.40
11925;DHT22;6022;48.768;18.608;2022-07-03T07:41:04;41.30;41.20
11925;DHT22;6022;48.768;18.608;2022-07-03T07:43:31;41.10;41.60
11925;DHT22;6022;48.768;18.608;2022-07-03T07:45:59;41.50;41.00
11925;DHT22;6022;48.768;18.608;2022-07-03T07:48:27;42.40;39.50
11925;DHT22;6022;48.768;18.608;2022-07-03T07:50:55;43.10;37.80
11925;DHT22;6022;48.768;18.608;2022-07-03T07:53:23;43.90;36.00
11925;DHT22;6022;48.768;18.608;2022-07-03T07:55:50;44.50;32.10
11925;DHT22;6022;48.768;18.608;2022-07-03T07:58:17;44.30;31.60
11925;DHT22;6022;48.768;18.608;2022-07-03T08:00:44;43.40;30.10
11925;DHT22;6022;48.768;18.608;2022-07-03T08:03:30;43.30;31.60
11925;DHT22;6022;48.768;18.608;2022-07-03T08:06:17;44.10;30.40
11925;DHT22;6022;48.768;18.608;2022-07-03T08:08:44;44.20;30.30
11925;DHT22;6022;48.768;18.608;2022-07-03T08:11:12;44.30;29.80
11925;DHT22;6022;48.768;18.608;2022-07-03T08:13:39;44.10;29.50
11925;DHT22;6022;48.768;18.608;2022-07-03T08:16:06;44.50;28.90
11925;DHT22;6022;48.768;18.608;2022-07-03T08:18:33;44.20;29.30
11925;DHT22;6022;48.768;18.608;2022-07-03T08:21:01;44.10;29.10
11925;DHT22;6022;48.768;18.608;2022-07-03T08:23:30;44.50;28.30
11925;DHT22;6022;48.768;18.608;2022-07-03T08:25:58;44.20;28.70
11925;DHT22;6022;48.768;18.608;2022-07-03T08:28:26;44.30;28.30
11925;DHT22;6022;48.768;18.608;2022-07-03T08:30:53;44.10;28.50
11925;DHT22;6022;48.768;18.608;2022-07-03T08:33:20;44.30;28.80
11925;DHT22;6022;48.768;18.608;2022-07-03T08:35:48;44.70;27.60
11925;DHT22;6022;48.768;18.608;2022-07-03T08:38:15;44.60;27.50
11925;DHT22;6022;48.768;18.608;2022-07-03T08:40:43;44.50;28.20
11925;DHT22;6022;48.768;18.608;2022-07-03T08:43:12;44.00;28.70
11925;DHT22;6022;48.768;18.608;2022-07-03T08:45:40;44.40;28.20
11925;DHT22;6022;48.768;18.608;2022-07-03T08:48:09;44.10;28.40
11925;DHT22;6022;48.768;18.608;2022-07-03T08:50:38;43.70;29.10
11925;DHT22;6022;48.768;18.608;2022-07-03T08:53:06;43.70;28.00
11925;DHT22;6022;48.768;18.608;2022-07-03T08:55:37;44.70;28.50
11925;DHT22;6022;48.768;18.608;2022-07-03T08:58:05;44.80;27.80
11925;DHT22;6022;48.768;18.608;2022-07-03T09:00:35;44.40;28.40
11925;DHT22;6022;48.768;18.608;2022-07-03T09:03:04;44.00;27.70
11925;DHT22;6022;48.768;18.608;2022-07-03T09:05:39;44.30;27.60
11925;DHT22;6022;48.768;18.608;2022-07-03T09:08:08;44.10;28.50
11925;DHT22;6022;48.768;18.608;2022-07-03T09:10:36;44.50;27.70
11925;DHT22;6022;48.768;18.608;2022-07-03T09:13:04;44.60;29.20
11925;DHT22;6022;48.768;18.608;2022-07-03T09:15:31;44.90;28.40
11925;DHT22;6022;48.768;18.608;2022-07-03T09:18:06;44.40;28.50
11925;DHT22;6022;48.768;18.608;2022-07-03T09:20:36;44.90;28.90
11925;DHT22;6022;48.768;18.608;2022-07-03T09:23:13;45.10;28.00
11925;DHT22;6022;48.768;18.608;2022-07-03T09:25:58;45.00;27.90
11925;DHT22;6022;48.768;18.608;2022-07-03T09:28:47;44.80;27.90
11925;DHT22;6022;48.768;18.608;2022-07-03T09:31:22;44.80;27.50
11925;DHT22;6022;48.768;18.608;2022-07-03T09:33:58;44.40;28.40
11925;DHT22;6022;48.768;18.608;2022-07-03T09:36:47;43.80;28.90
11925;DHT22;6022;48.768;18.608;2022-07-03T09:39:22;44.00;29.30
11925;DHT22;6022;48.768;18.608;2022-07-03T09:42:06;44.50;28.80
11925;DHT22;6022;48.768;18.608;2022-07-03T09:44:40;44.70;28.20
11925;DHT22;6022;48.768;18.608;2022-07-03T09:47:20;44.30;28.30
11925;DHT22;6022;48.768;18.608;2022-07-03T09:55:01;44.40;27.50
11925;DHT22;6022;48.768;18.608;2022-07-03T09:57:42;44.10;28.10
11925;DHT22;6022;48.768;18.608;2022-07-03T10:03:00;43.80;28.50
11925;DHT22;6022;48.768;18.608;2022-07-03T10:05:36;42.90;28.20
11925;DHT22;6022;48.768;18.608;2022-07-03T10:08:12;42.80;28.80
11925;DHT22;6022;48.768;18.608;2022-07-03T10:10:44;43.30;28.10
11925;DHT22;6022;48.768;18.608;2022-07-03T10:13:13;43.60;28.00
11925;DHT22;6022;48.768;18.608;2022-07-03T10:15:42;43.60;28.00
11925;DHT22;6022;48.768;18.608;2022-07-03T10:18:14;43.20;27.90
11925;DHT22;6022;48.768;18.608;2022-07-03T10:20:46;42.80;28.40
11925;DHT22;6022;48.768;18.608;2022-07-03T10:23:16;42.70;28.80
11925;DHT22;6022;48.768;18.608;2022-07-03T10:25:47;42.90;28.40
11925;DHT22;6022;48.768;18.608;2022-07-03T10:28:17;42.90;28.70
11925;DHT22;6022;48.768;18.608;2022-07-03T10:30:47;42.80;28.20
11925;DHT22;6022;48.768;18.608;2022-07-03T10:33:15;42.20;28.30
11925;DHT22;6022;48.768;18.608;2022-07-03T10:35:51;41.90;29.00
11925;DHT22;6022;48.768;18.608;2022-07-03T10:38:40;41.70;29.10
11925;DHT22;6022;48.768;18.608;2022-07-03T10:44:24;41.00;29.60
11925;DHT22;6022;48.768;18.608;2022-07-03T10:52:45;40.40;29.70
11925;DHT22;6022;48.768;18.608;2022-07-03T10:55:14;40.40;30.50
11925;DHT22;6022;48.768;18.608;2022-07-03T10:58:05;40.30;30.00
11925;DHT22;6022;48.768;18.608;2022-07-03T11:00:53;40.30;30.00
11925;DHT22;6022;48.768;18.608;2022-07-03T11:03:52;40.10;29.90
11925;DHT22;6022;48.768;18.608;2022-07-03T11:09:13;40.30;30.30
11925;DHT22;6022;48.768;18.608;2022-07-03T11:11:43;40.10;30.70
11925;DHT22;6022;48.768;18.608;2022-07-03T11:17:20;40.50;29.70
11925;DHT22;6022;48.768;18.608;2022-07-03T11:19:49;40.50;29.80
11925;DHT22;6022;48.768;18.608;2022-07-03T11:22:51;40.40;29.80
11925;DHT22;6022;48.768;18.608;2022-07-03T11:25:25;40.40;30.00
11925;DHT22;6022;48.768;18.608;2022-07-03T11:27:52;40.40;29.80
11925;DHT22;6022;48.768;18.608;2022-07-03T11:30:20;40.40;30.30
11925;DHT22;6022;48.768;18.608;2022-07-03T11:32:54;40.40;30.00
11925;DHT22;6022;48.768;18.608;2022-07-03T11:38:26;40.00;30.40
11925;DHT22;6022;48.768;18.608;2022-07-03T11:40:56;40.10;30.30
11925;DHT22;6022;48.768;18.608;2022-07-03T11:43:25;39.90;30.00
11925;DHT22;6022;48.768;18.608;2022-07-03T11:45:53;39.60;30.90
11925;DHT22;6022;48.768;18.608;2022-07-03T11:48:22;39.60;30.50
11925;DHT22;6022;48.768;18.608;2022-07-03T11:50:57;39.40;30.10
11925;DHT22;6022;48.768;18.608;2022-07-03T11:53:34;39.40;30.90
11925;DHT22;6022;48.768;18.608;2022-07-03T11:58:53;39.00;31.10
11925;DHT22;6022;48.768;18.608;2022-07-03T12:06:59;38.90;31.20
11925;DHT22;6022;48.768;18.608;2022-07-03T12:09:31;38.80;31.70
11925;DHT22;6022;48.768;18.608;2022-07-03T12:12:09;38.80;32.50
11925;DHT22;6022;48.768;18.608;2022-07-03T12:14:45;39.00;31.10
11925;DHT22;6022;48.768;18.608;2022-07-03T12:17:21;39.10;31.10
11925;DHT22;6022;48.768;18.608;2022-07-03T12:19:54;38.90;31.00
11925;DHT22;6022;48.768;18.608;2022-07-03T12:25:11;38.30;31.00
11925;DHT22;6022;48.768;18.608;2022-07-03T12:27:41;38.30;30.50
11925;DHT22;6022;48.768;18.608;2022-07-03T12:30:13;38.20;31.00
11925;DHT22;6022;48.768;18.608;2022-07-03T12:32:54;38.20;31.50
11925;DHT22;6022;48.768;18.608;2022-07-03T12:35:27;38.10;31.50
11925;DHT22;6022;48.768;18.608;2022-07-03T12:37:55;38.00;30.20
11925;DHT22;6022;48.768;18.608;2022-07-03T12:40:23;37.40;31.30
11925;DHT22;6022;48.768;18.608;2022-07-03T12:42:55;37.30;32.10
11925;DHT22;6022;48.768;18.608;2022-07-03T12:45:24;37.00;32.20
11925;DHT22;6022;48.768;18.608;2022-07-03T12:48:07;36.60;33.70
11925;DHT22;6022;48.768;18.608;2022-07-03T12:50:49;36.30;34.00
11925;DHT22;6022;48.768;18.608;2022-07-03T12:53:29;35.50;32.80
11925;DHT22;6022;48.768;18.608;2022-07-03T12:56:05;35.40;33.80
11925;DHT22;6022;48.768;18.608;2022-07-03T12:58:35;35.40;34.70
11925;DHT22;6022;48.768;18.608;2022-07-03T13:01:34;35.30;35.30
11925;DHT22;6022;48.768;18.608;2022-07-03T13:04:07;34.90;34.40
11925;DHT22;6022;48.768;18.608;2022-07-03T13:06:36;34.70;34.20
11925;DHT22;6022;48.768;18.608;2022-07-03T13:09:04;34.80;35.20
11925;DHT22;6022;48.768;18.608;2022-07-03T13:11:37;34.80;34.90
11925;DHT22;6022;48.768;18.608;2022-07-03T13:16:38;34.70;34.70
11925;DHT22;6022;48.768;18.608;2022-07-03T13:19:18;34.70;35.40
11925;DHT22;6022;48.768;18.608;2022-07-03T13:21:47;34.60;34.70
11925;DHT22;6022;48.768;18.608;2022-07-03T13:24:17;34.40;35.00
11925;DHT22;6022;48.768;18.608;2022-07-03T13:26:47;34.10;34.10
11925;DHT22;6022;48.768;18.608;2022-07-03T13:29:20;34.30;35.10
11925;DHT22;6022;48.768;18.608;2022-07-03T13:31:53;34.20;35.10
11925;DHT22;6022;48.768;18.608;2022-07-03T13:34:21;34.10;35.50
11925;DHT22;6022;48.768;18.608;2022-07-03T13:36:48;34.00;36.00
11925;DHT22;6022;48.768;18.608;2022-07-03T13:39:16;34.10;35.20
11925;DHT22;6022;48.768;18.608;2022-07-03T13:41:43;34.10;35.80
11925;DHT22;6022;48.768;18.608;2022-07-03T13:44:12;34.10;35.00
11925;DHT22;6022;48.768;18.608;2022-07-03T13:46:39;34.10;35.10
11925;DHT22;6022;48.768;18.608;2022-07-03T13:49:06;34.00;35.70
11925;DHT22;6022;48.768;18.608;2022-07-03T13:51:33;34.10;35.60
11925;DHT22;6022;48.768;18.608;2022-07-03T13:54:01;33.90;34.80
11925;DHT22;6022;48.768;18.608;2022-07-03T13:56:28;33.70;34.80
11925;DHT22;6022;48.768;18.608;2022-07-03T13:58:56;33.70;35.00
11925;DHT22;6022;48.768;18.608;2022-07-03T14:01:23;33.60;35.10
11925;DHT22;6022;48.768;18.608;2022-07-03T14:03:50;33.40;35.20
11925;DHT22;6022;48.768;18.608;2022-07-03T14:06:17;33.40;35.30
11925;DHT22;6022;48.768;18.608;2022-07-03T14:08:44;33.40;35.00
11925;DHT22;6022;48.768;18.608;2022-07-03T14:11:12;33.30;35.50
11925;DHT22;6022;48.768;18.608;2022-07-03T14:13:39;33.40;34.60
11925;DHT22;6022;48.768;18.608;2022-07-03T14:16:06;33.30;35.30
11925;DHT22;6022;48.768;18.608;2022-07-03T14:18:34;33.30;35.30
11925;DHT22;6022;48.768;18.608;2022-07-03T14:21:01;33.30;35.90
11925;DHT22;6022;48.768;18.608;2022-07-03T14:23:28;33.30;36.40
11925;DHT22;6022;48.768;18.608;2022-07-03T14:25:56;33.40;34.50
11925;DHT22;6022;48.768;18.608;2022-07-03T14:28:24;33.30;35.20
11925;DHT22;6022;48.768;18.608;2022-07-03T14:31:16;33.20;35.90
11925;DHT22;6022;48.768;18.608;2022-07-03T14:33:46;33.20;35.80
11925;DHT22;6022;48.768;18.608;2022-07-03T14:36:16;33.10;36.00
11925;DHT22;6022;48.768;18.608;2022-07-03T14:39:03;33.00;36.00
11925;DHT22;6022;48.768;18.608;2022-07-03T14:41:31;33.00;36.80
11925;DHT22;6022;48.768;18.608;2022-07-03T14:43:58;32.90;36.70
11925;DHT22;6022;48.768;18.608;2022-07-03T14:46:25;32.90;36.50
11925;DHT22;6022;48.768;18.608;2022-07-03T14:48:53;32.70;37.00
11925;DHT22;6022;48.768;18.608;2022-07-03T14:51:20;32.70;37.10
11925;DHT22;6022;48.768;18.608;2022-07-03T14:53:47;32.80;35.90
11925;DHT22;6022;48.768;18.608;2022-07-03T14:56:18;32.80;36.40
11925;DHT22;6022;48.768;18.608;2022-07-03T14:58:47;32.80;35.10
11925;DHT22;6022;48.768;18.608;2022-07-03T15:01:17;32.60;36.20
11925;DHT22;6022;48.768;18.608;2022-07-03T15:04:21;32.60;36.40
11925;DHT22;6022;48.768;18.608;2022-07-03T15:07:00;32.50;36.70
11925;DHT22;6022;48.768;18.608;2022-07-03T15:09:33;32.20;34.70
11925;DHT22;6022;48.768;18.608;2022-07-03T15:12:05;32.50;35.60
11925;DHT22;6022;48.768;18.608;2022-07-03T15:14:53;32.50;36.10
11925;DHT22;6022;48.768;18.608;2022-07-03T15:17:21;32.40;36.20
11925;DHT22;6022;48.768;18.608;2022-07-03T15:19:50;32.30;36.60
11925;DHT22;6022;48.768;18.608;2022-07-03T15:22:20;32.40;37.50
11925;DHT22;6022;48.768;18.608;2022-07-03T15:24:52;32.30;37.70
11925;DHT22;6022;48.768;18.608;2022-07-03T15:27:23;32.30;36.60
11925;DHT22;6022;48.768;18.608;2022-07-03T15:29:51;32.00;36.60
11925;DHT22;6022;48.768;18.608;2022-07-03T15:32:18;32.20;37.30
11925;DHT22;6022;48.768;18.608;2022-07-03T15:34:46;32.10;37.30
11925;DHT22;6022;48.768;18.608;2022-07-03T15:37:30;32.10;37.50
11925;DHT22;6022;48.768;18.608;2022-07-03T15:45:06;31.90;37.20
11925;DHT22;6022;48.768;18.608;2022-07-03T15:47:51;31.90;37.40
11925;DHT22;6022;48.768;18.608;2022-07-03T15:50:53;31.80;35.20
11925;DHT22;6022;48.768;18.608;2022-07-03T15:53:30;31.80;34.90
11925;DHT22;6022;48.768;18.608;2022-07-03T15:56:06;31.80;35.40
11925;DHT22;6022;48.768;18.608;2022-07-03T15:58:38;31.70;35.50
11925;DHT22;6022;48.768;18.608;2022-07-03T16:01:15;31.60;35.90
11925;DHT22;6022;48.768;18.608;2022-07-03T16:04:10;31.50;36.00
11925;DHT22;6022;48.768;18.608;2022-07-03T16:06:46;31.50;36.50
11925;DHT22;6022;48.768;18.608;2022-07-03T16:09:15;31.40;36.40
11925;DHT22;6022;48.768;18.608;2022-07-03T16:11:45;31.20;35.90
11925;DHT22;6022;48.768;18.608;2022-07-03T16:14:14;31.40;36.60
11925;DHT22;6022;48.768;18.608;2022-07-03T16:16:45;31.40;35.60
11925;DHT22;6022;48.768;18.608;2022-07-03T16:19:13;31.30;35.20
11925;DHT22;6022;48.768;18.608;2022-07-03T16:21:41;31.20;36.10
11925;DHT22;6022;48.768;18.608;2022-07-03T16:24:09;31.10;35.20
11925;DHT22;6022;48.768;18.608;2022-07-03T16:26:37;31.20;35.20
11925;DHT22;6022;48.768;18.608;2022-07-03T16:29:04;31.10;35.00
11925;DHT22;6022;48.768;18.608;2022-07-03T16:31:37;31.10;35.50
11925;DHT22;6022;48.768;18.608;2022-07-03T16:36:47;31.10;35.20
11925;DHT22;6022;48.768;18.608;2022-07-03T16:39:38;31.00;35.80
11925;DHT22;6022;48.768;18.608;2022-07-03T16:42:10;30.80;35.90
11925;DHT22;6022;48.768;18.608;2022-07-03T16:44:42;30.80;36.60
11925;DHT22;6022;48.768;18.608;2022-07-03T16:47:13;30.80;37.20
11925;DHT22;6022;48.768;18.608;2022-07-03T16:49:41;30.80;37.90
11925;DHT22;6022;48.768;18.608;2022-07-03T16:52:11;30.80;37.90
11925;DHT22;6022;48.768;18.608;2022-07-03T16:54:38;30.70;37.90
11925;DHT22;6022;48.768;18.608;2022-07-03T16:57:08;30.60;38.60
11925;DHT22;6022;48.768;18.608;2022-07-03T16:59:37;30.50;38.40
11925;DHT22;6022;48.768;18.608;2022-07-03T17:02:04;30.50;38.90
11925;DHT22;6022;48.768;18.608;2022-07-03T17:04:44;30.30;39.50
11925;DHT22;6022;48.768;18.608;2022-07-03T17:07:11;30.30;40.10
11925;DHT22;6022;48.768;18.608;2022-07-03T17:09:41;30.30;40.20
11925;DHT22;6022;48.768;18.608;2022-07-03T17:12:10;30.20;40.00
11925;DHT22;6022;48.768;18.608;2022-07-03T17:14:38;30.20;39.80
11925;DHT22;6022;48.768;18.608;2022-07-03T17:17:11;30.20;40.20
11925;DHT22;6022;48.768;18.608;2022-07-03T17:19:51;30.10;41.50
11925;DHT22;6022;48.768;18.608;2022-07-03T17:22:27;29.90;41.80
11925;DHT22;6022;48.768;18.608;2022-07-03T17:24:57;30.10;42.20